WXM80 ListenWXM80 Stop

You find our weather info also at:

UK Metoffice

WeatherCloud

Weather Underground

Northeastern Weather Network

AWEKAS

Citizen Weather Observer Program (CWOP)

HAMweather, WeatherForYou, PWS Weather


Weather Underground History page Text

Daily Summary for November 2, 2017 Units:  Both    English   Metric
« Previous Day
Next Day »
Daily Weekly Monthly Yearly Custom
  High: Low: Average:
Temperature: 73.7 °F /  23.2 °C 51.1 °F /  10.6 °C 64.1 °F /  17.8 °C
Dew Point: 65.3 °F /  18.5 °C 48.3 °F /  9.1 °C 60.8 °F /  16 °C
Humidity: 98 % 71 % 89 %
Wind Speed: 5.3 mph /  8.5 km/h - 1 mph /  1.6 km/h
Wind Gust: 10.4 mph /  16.7 km/h - -
Wind:- - South
Pressure: 30.32 in /  1026.6 hPa 29.96 in /  1014.4 hPa -
Precipitation: 0.05 in /  1.27 mm    
Historical Graphs
 
 
Tabular Data for November 2, 2017
Time Temperature Dew Point Pressure Wind Wind Speed Wind Gust Humidity Rainfall Rate (Hourly)
00:00 51.1 °F /  10.6 °C 48.3 °F /  9.1 °C 30.32 in /  1026.6 hPa SE 1.1 mph /  1.8 km/h 3.5 mph /  5.6 km/h 90 % 0.00 in /  0 mm
00:05 51.1 °F /  10.6 °C 48.6 °F /  9.2 °C 30.31 in /  1026.3 hPa SE 2.3 mph /  3.7 km/h 3.5 mph /  5.6 km/h 91 % 0.00 in /  0 mm
00:10 51.2 °F /  10.7 °C 48.7 °F /  9.3 °C 30.31 in /  1026.3 hPa SE 1.2 mph /  1.9 km/h 3.5 mph /  5.6 km/h 91 % 0.00 in /  0 mm
00:15 51.5 °F /  10.8 °C 49.3 °F /  9.6 °C 30.32 in /  1026.6 hPa SE 1.5 mph /  2.4 km/h 3.5 mph /  5.6 km/h 92 % 0.00 in /  0 mm
00:20 52.0 °F /  11.1 °C 50.3 °F /  10.2 °C 30.32 in /  1026.6 hPa Calm   1.2 mph /  1.9 km/h 94 % 0.00 in /  0 mm
00:25 52.4 °F /  11.3 °C 51.0 °F /  10.6 °C 30.32 in /  1026.6 hPa SE 0.2 mph /  0.3 km/h 1.2 mph /  1.9 km/h 95 % 0.00 in /  0 mm
00:30 52.7 °F /  11.5 °C 51.3 °F /  10.7 °C 30.32 in /  1026.6 hPa SE 1.0 mph /  1.6 km/h 2.3 mph /  3.7 km/h 95 % 0.00 in /  0 mm
00:35 53.1 °F /  11.7 °C 51.7 °F /  10.9 °C 30.32 in /  1026.6 hPa SE 0.4 mph /  0.6 km/h 1.2 mph /  1.9 km/h 95 % 0.00 in /  0 mm
00:40 53.3 °F /  11.8 °C 51.9 °F /  11.1 °C 30.32 in /  1026.6 hPa Calm   1.0 mph /  1.6 km/h 95 % 0.00 in /  0 mm
00:45 53.5 °F /  11.9 °C 52.4 °F /  11.3 °C 30.32 in /  1026.6 hPa SE 0.3 mph /  0.5 km/h 1.2 mph /  1.9 km/h 96 % 0.00 in /  0 mm
00:50 53.7 °F /  12.1 °C 52.6 °F /  11.4 °C 30.32 in /  1026.6 hPa SE 0.5 mph /  0.8 km/h 1.2 mph /  1.9 km/h 96 % 0.00 in /  0 mm
00:55 53.9 °F /  12.2 °C 52.8 °F /  11.6 °C 30.32 in /  1026.6 hPa Calm     96 % 0.00 in /  0 mm
01:00 54.1 °F /  12.3 °C 53.0 °F /  11.7 °C 30.32 in /  1026.6 hPa Calm     96 % 0.00 in /  0 mm
01:05 54.2 °F /  12.3 °C 53.1 °F /  11.7 °C 30.31 in /  1026.3 hPa Calm     96 % 0.00 in /  0 mm
01:10 54.3 °F /  12.4 °C 53.2 °F /  11.8 °C 30.32 in /  1026.6 hPa Calm     96 % 0.00 in /  0 mm
01:15 54.5 °F /  12.5 °C 53.4 °F /  11.9 °C 30.31 in /  1026.3 hPa Calm     96 % 0.00 in /  0 mm
01:20 54.5 °F /  12.5 °C 53.4 °F /  11.9 °C 30.31 in /  1026.3 hPa Calm     96 % 0.00 in /  0 mm
01:25 54.6 °F /  12.6 °C 53.5 °F /  11.9 °C 30.31 in /  1026.3 hPa Calm     96 % 0.00 in /  0 mm
01:30 54.6 °F /  12.6 °C 53.5 °F /  11.9 °C 30.31 in /  1026.3 hPa Calm   2.3 mph /  3.7 km/h 96 % 0.00 in /  0 mm
01:36 54.7 °F /  12.6 °C 53.6 °F /  12 °C 30.31 in /  1026.3 hPa Calm   2.0 mph /  3.2 km/h 96 % 0.00 in /  0 mm
01:41 54.8 °F /  12.7 °C 53.7 °F /  12.1 °C 30.31 in /  1026.3 hPa SE 1.0 mph /  1.6 km/h 4.0 mph /  6.4 km/h 96 % 0.00 in /  0 mm
01:46 55.0 °F /  12.8 °C 54.2 °F /  12.3 °C 30.31 in /  1026.3 hPa SE 2.0 mph /  3.2 km/h 4.0 mph /  6.4 km/h 97 % 0.00 in /  0 mm
01:51 55.5 °F /  13.1 °C 54.6 °F /  12.6 °C 30.31 in /  1026.3 hPa SE 2.0 mph /  3.2 km/h 6.0 mph /  9.7 km/h 97 % 0.00 in /  0 mm
01:56 56.1 °F /  13.4 °C 55.3 °F /  12.9 °C 30.31 in /  1026.3 hPa Calm   3.0 mph /  4.8 km/h 97 % 0.00 in /  0 mm
02:01 56.8 °F /  13.8 °C 56.0 °F /  13.3 °C 30.31 in /  1026.3 hPa SE 1.3 mph /  2.1 km/h 4.0 mph /  6.4 km/h 97 % 0.00 in /  0 mm
02:06 57.3 °F /  14.1 °C 56.5 °F /  13.6 °C 30.31 in /  1026.3 hPa Calm   1.2 mph /  1.9 km/h 97 % 0.00 in /  0 mm
02:11 57.7 °F /  14.3 °C 56.9 °F /  13.8 °C 30.31 in /  1026.3 hPa SSE 1.5 mph /  2.4 km/h 3.5 mph /  5.6 km/h 97 % 0.00 in /  0 mm
02:16 58.3 °F /  14.6 °C 57.7 °F /  14.3 °C 30.31 in /  1026.3 hPa SSE 2.3 mph /  3.7 km/h 3.5 mph /  5.6 km/h 98 % 0.00 in /  0 mm
02:21 58.6 °F /  14.8 °C 57.8 °F /  14.3 °C 30.31 in /  1026.3 hPa SSE 0.8 mph /  1.3 km/h 2.3 mph /  3.7 km/h 97 % 0.00 in /  0 mm
02:26 58.8 °F /  14.9 °C 58.0 °F /  14.4 °C 30.31 in /  1026.3 hPa SSE 1.0 mph /  1.6 km/h 2.3 mph /  3.7 km/h 97 % 0.00 in /  0 mm
02:31 58.9 °F /  14.9 °C 58.3 °F /  14.6 °C 30.31 in /  1026.3 hPa SSE 1.3 mph /  2.1 km/h 3.5 mph /  5.6 km/h 98 % 0.00 in /  0 mm
02:36 59.1 °F /  15.1 °C 58.5 °F /  14.7 °C 30.32 in /  1026.6 hPa SSE 0.2 mph /  0.3 km/h 2.3 mph /  3.7 km/h 98 % 0.00 in /  0 mm
02:41 59.1 °F /  15.1 °C 58.2 °F /  14.6 °C 30.31 in /  1026.3 hPa Calm     97 % 0.00 in /  0 mm
02:46 59.1 °F /  15.1 °C 58.2 °F /  14.6 °C 30.30 in /  1026 hPa Calm     97 % 0.00 in /  0 mm
02:51 59.2 °F /  15.1 °C 58.3 °F /  14.6 °C 30.31 in /  1026.3 hPa SSE 0.9 mph /  1.4 km/h 2.3 mph /  3.7 km/h 97 % 0.00 in /  0 mm
02:52 59.2 °F /  15.1 °C 58.3 °F /  14.6 °C 30.31 in /  1026.3 hPa SSE 0.8 mph /  1.3 km/h 3.5 mph /  5.6 km/h 97 % 0.00 in /  0 mm
02:57 59.2 °F /  15.1 °C 58.3 °F /  14.6 °C 30.31 in /  1026.3 hPa SE 2.5 mph /  4 km/h 4.0 mph /  6.4 km/h 97 % 0.00 in /  0 mm
03:02 59.4 °F /  15.2 °C 58.5 °F /  14.7 °C 30.31 in /  1026.3 hPa SE 0.7 mph /  1.1 km/h 4.6 mph /  7.4 km/h 97 % 0.00 in /  0 mm
03:07 59.5 °F /  15.3 °C 58.6 °F /  14.8 °C 30.29 in /  1025.6 hPa SE 0.4 mph /  0.6 km/h 2.3 mph /  3.7 km/h 97 % 0.00 in /  0 mm
03:12 59.7 °F /  15.4 °C 59.1 °F /  15.1 °C 30.29 in /  1025.6 hPa SE 0.2 mph /  0.3 km/h 1.0 mph /  1.6 km/h 98 % 0.00 in /  0 mm
03:15 59.7 °F /  15.4 °C 59.1 °F /  15.1 °C 30.29 in /  1025.6 hPa SE 0.9 mph /  1.4 km/h 2.3 mph /  3.7 km/h 98 % 0.00 in /  0 mm
03:20 59.9 °F /  15.5 °C 59.3 °F /  15.2 °C 30.29 in /  1025.6 hPa SE 2.5 mph /  4 km/h 4.6 mph /  7.4 km/h 98 % 0.00 in /  0 mm
03:25 60.2 °F /  15.7 °C 59.6 °F /  15.3 °C 30.28 in /  1025.3 hPa Calm   8.1 mph /  13 km/h 98 % 0.00 in /  0 mm
03:30 60.2 °F /  15.7 °C 59.6 °F /  15.3 °C 30.30 in /  1026 hPa West 2.4 mph /  3.9 km/h 5.8 mph /  9.3 km/h 98 % 0.00 in /  0 mm
03:35 60.3 °F /  15.7 °C 59.7 °F /  15.4 °C 30.30 in /  1026 hPa SSW 1.0 mph /  1.6 km/h 3.5 mph /  5.6 km/h 98 % 0.00 in /  0 mm
03:40 60.3 °F /  15.7 °C 59.4 °F /  15.2 °C 30.29 in /  1025.6 hPa Calm   3.5 mph /  5.6 km/h 97 % 0.00 in /  0 mm
03:45 60.4 °F /  15.8 °C 59.5 °F /  15.3 °C 30.30 in /  1026 hPa SE 1.5 mph /  2.4 km/h 3.5 mph /  5.6 km/h 97 % 0.00 in /  0 mm
03:50 60.4 °F /  15.8 °C 59.5 °F /  15.3 °C 30.30 in /  1026 hPa Calm     97 % 0.00 in /  0 mm
03:55 60.4 °F /  15.8 °C 59.5 °F /  15.3 °C 30.30 in /  1026 hPa Calm   1.2 mph /  1.9 km/h 97 % 0.00 in /  0 mm
04:00 60.5 °F /  15.8 °C 59.6 °F /  15.3 °C 30.30 in /  1026 hPa SSE 0.7 mph /  1.1 km/h 1.2 mph /  1.9 km/h 97 % 0.00 in /  0 mm
04:05 60.5 °F /  15.8 °C 59.6 °F /  15.3 °C 30.29 in /  1025.6 hPa Calm   1.0 mph /  1.6 km/h 97 % 0.00 in /  0 mm
04:10 60.5 °F /  15.8 °C 59.6 °F /  15.3 °C 30.30 in /  1026 hPa SE 0.4 mph /  0.6 km/h 1.2 mph /  1.9 km/h 97 % 0.00 in /  0 mm
04:15 60.6 °F /  15.9 °C 59.7 °F /  15.4 °C 30.30 in /  1026 hPa SE 0.1 mph /  0.2 km/h 2.3 mph /  3.7 km/h 97 % 0.00 in /  0 mm
04:18 60.6 °F /  15.9 °C 59.7 °F /  15.4 °C 30.29 in /  1025.6 hPa SE 0.6 mph /  1 km/h 5.0 mph /  8 km/h 97 % 0.00 in /  0 mm
04:23 60.7 °F /  15.9 °C 59.8 °F /  15.4 °C 30.29 in /  1025.6 hPa SSE 3.1 mph /  5 km/h 6.9 mph /  11.1 km/h 97 % 0.00 in /  0 mm
04:28 60.9 °F /  16.1 °C 60.0 °F /  15.6 °C 30.29 in /  1025.6 hPa SSE 1.0 mph /  1.6 km/h 3.0 mph /  4.8 km/h 97 % 0.00 in /  0 mm
04:33 61.0 °F /  16.1 °C 60.1 °F /  15.6 °C 30.29 in /  1025.6 hPa SE 1.9 mph /  3.1 km/h 9.0 mph /  14.5 km/h 97 % 0.00 in /  0 mm
04:38 61.1 °F /  16.2 °C 60.2 °F /  15.7 °C 30.29 in /  1025.6 hPa SE 0.5 mph /  0.8 km/h 2.3 mph /  3.7 km/h 97 % 0.00 in /  0 mm
04:43 61.2 °F /  16.2 °C 60.3 °F /  15.7 °C 30.29 in /  1025.6 hPa SSE 3.7 mph /  6 km/h 5.0 mph /  8 km/h 97 % 0.00 in /  0 mm
04:48 61.3 °F /  16.3 °C 60.4 °F /  15.8 °C 30.29 in /  1025.6 hPa SE 2.1 mph /  3.4 km/h 3.5 mph /  5.6 km/h 97 % 0.00 in /  0 mm
04:53 61.3 °F /  16.3 °C 60.4 °F /  15.8 °C 30.29 in /  1025.6 hPa Calm   1.2 mph /  1.9 km/h 97 % 0.00 in /  0 mm
04:58 61.3 °F /  16.3 °C 60.4 °F /  15.8 °C 30.29 in /  1025.6 hPa SSE 0.4 mph /  0.6 km/h 2.3 mph /  3.7 km/h 97 % 0.00 in /  0 mm
05:03 61.3 °F /  16.3 °C 60.4 °F /  15.8 °C 30.30 in /  1026 hPa South 2.0 mph /  3.2 km/h 5.8 mph /  9.3 km/h 97 % 0.00 in /  0 mm
05:08 61.4 °F /  16.3 °C 60.5 °F /  15.8 °C 30.30 in /  1026 hPa SSE 0.7 mph /  1.1 km/h 3.5 mph /  5.6 km/h 97 % 0.00 in /  0 mm
05:13 61.5 °F /  16.4 °C 60.3 °F /  15.7 °C 30.29 in /  1025.6 hPa SSE 0.3 mph /  0.5 km/h 1.2 mph /  1.9 km/h 96 % 0.00 in /  0 mm
05:18 61.6 °F /  16.4 °C 60.7 °F /  15.9 °C 30.29 in /  1025.6 hPa South 1.0 mph /  1.6 km/h 3.5 mph /  5.6 km/h 97 % 0.00 in /  0 mm
05:23 61.7 °F /  16.5 °C 60.5 °F /  15.8 °C 30.29 in /  1025.6 hPa Calm     96 % 0.00 in /  0 mm
05:28 61.7 °F /  16.5 °C 60.5 °F /  15.8 °C 30.29 in /  1025.6 hPa SE 1.0 mph /  1.6 km/h 3.5 mph /  5.6 km/h 96 % 0.00 in /  0 mm
05:33 61.7 °F /  16.5 °C 60.5 °F /  15.8 °C 30.29 in /  1025.6 hPa SSW 0.6 mph /  1 km/h 2.0 mph /  3.2 km/h 96 % 0.00 in /  0 mm
05:38 61.7 °F /  16.5 °C 60.5 °F /  15.8 °C 30.29 in /  1025.6 hPa Calm   1.2 mph /  1.9 km/h 96 % 0.00 in /  0 mm
05:43 61.7 °F /  16.5 °C 60.5 °F /  15.8 °C 30.29 in /  1025.6 hPa SSE 0.3 mph /  0.5 km/h 2.0 mph /  3.2 km/h 96 % 0.00 in /  0 mm
05:48 61.7 °F /  16.5 °C 60.5 °F /  15.8 °C 30.30 in /  1026 hPa SE 0.3 mph /  0.5 km/h 2.3 mph /  3.7 km/h 96 % 0.00 in /  0 mm
05:53 61.6 °F /  16.4 °C 60.4 °F /  15.8 °C 30.30 in /  1026 hPa Calm     96 % 0.00 in /  0 mm
05:58 61.6 °F /  16.4 °C 60.4 °F /  15.8 °C 30.29 in /  1025.6 hPa SSW 0.2 mph /  0.3 km/h 2.3 mph /  3.7 km/h 96 % 0.00 in /  0 mm
06:04 61.6 °F /  16.4 °C 60.4 °F /  15.8 °C 30.29 in /  1025.6 hPa Calm     96 % 0.00 in /  0 mm
06:09 61.5 °F /  16.4 °C 60.3 °F /  15.7 °C 30.30 in /  1026 hPa Calm     96 % 0.00 in /  0 mm
06:14 61.5 °F /  16.4 °C 60.3 °F /  15.7 °C 30.30 in /  1026 hPa Calm   1.0 mph /  1.6 km/h 96 % 0.00 in /  0 mm
06:19 61.4 °F /  16.3 °C 60.2 °F /  15.7 °C 30.30 in /  1026 hPa Calm   1.2 mph /  1.9 km/h 96 % 0.00 in /  0 mm
06:24 61.4 °F /  16.3 °C 60.2 °F /  15.7 °C 30.29 in /  1025.6 hPa Calm     96 % 0.00 in /  0 mm
06:29 61.3 °F /  16.3 °C 60.2 °F /  15.7 °C 30.30 in /  1026 hPa SSW 0.2 mph /  0.3 km/h 1.2 mph /  1.9 km/h 96 % 0.00 in /  0 mm
06:34 61.3 °F /  16.3 °C 60.2 °F /  15.7 °C 30.30 in /  1026 hPa Calm     96 % 0.00 in /  0 mm
06:39 61.2 °F /  16.2 °C 60.1 °F /  15.6 °C 30.30 in /  1026 hPa Calm     96 % 0.00 in /  0 mm
06:44 61.2 °F /  16.2 °C 60.1 °F /  15.6 °C 30.30 in /  1026 hPa Calm     96 % 0.00 in /  0 mm
06:49 61.1 °F /  16.2 °C 60.0 °F /  15.6 °C 30.29 in /  1025.6 hPa Calm     96 % 0.00 in /  0 mm
06:54 61.1 °F /  16.2 °C 60.0 °F /  15.6 °C 30.29 in /  1025.6 hPa Calm     96 % 0.00 in /  0 mm
06:59 61.0 °F /  16.1 °C 59.9 °F /  15.5 °C 30.29 in /  1025.6 hPa Calm     96 % 0.00 in /  0 mm
07:04 61.0 °F /  16.1 °C 59.9 °F /  15.5 °C 30.30 in /  1026 hPa Calm   1.2 mph /  1.9 km/h 96 % 0.00 in /  0 mm
07:09 61.0 °F /  16.1 °C 59.9 °F /  15.5 °C 30.30 in /  1026 hPa Calm     96 % 0.00 in /  0 mm
07:14 61.0 °F /  16.1 °C 59.9 °F /  15.5 °C 30.30 in /  1026 hPa Calm   1.2 mph /  1.9 km/h 96 % 0.00 in /  0 mm
07:19 61.0 °F /  16.1 °C 59.9 °F /  15.5 °C 30.30 in /  1026 hPa Calm   1.2 mph /  1.9 km/h 96 % 0.00 in /  0 mm
07:24 60.9 °F /  16.1 °C 59.8 °F /  15.4 °C 30.30 in /  1026 hPa Calm     96 % 0.00 in /  0 mm
07:29 60.9 °F /  16.1 °C 59.8 °F /  15.4 °C 30.30 in /  1026 hPa Calm     96 % 0.00 in /  0 mm
07:34 60.9 °F /  16.1 °C 59.8 °F /  15.4 °C 30.30 in /  1026 hPa Calm     96 % 0.00 in /  0 mm
07:39 60.8 °F /  16 °C 59.7 °F /  15.4 °C 30.30 in /  1026 hPa Calm     96 % 0.00 in /  0 mm
07:44 60.8 °F /  16 °C 59.7 °F /  15.4 °C 30.30 in /  1026 hPa Calm     96 % 0.00 in /  0 mm
07:49 60.8 °F /  16 °C 59.7 °F /  15.4 °C 30.30 in /  1026 hPa Calm     96 % 0.00 in /  0 mm
07:54 60.8 °F /  16 °C 59.7 °F /  15.4 °C 30.30 in /  1026 hPa Calm     96 % 0.00 in /  0 mm
07:59 60.7 °F /  15.9 °C 59.6 °F /  15.3 °C 30.30 in /  1026 hPa Calm   1.2 mph /  1.9 km/h 96 % 0.00 in /  0 mm
08:04 60.7 °F /  15.9 °C 59.6 °F /  15.3 °C 30.30 in /  1026 hPa Calm     96 % 0.00 in /  0 mm
08:09 60.7 °F /  15.9 °C 59.6 °F /  15.3 °C 30.30 in /  1026 hPa Calm     96 % 0.00 in /  0 mm
08:14 60.8 °F /  16 °C 59.7 °F /  15.4 °C 30.30 in /  1026 hPa Calm     96 % 0.00 in /  0 mm
08:19 60.9 °F /  16.1 °C 59.8 °F /  15.4 °C 30.30 in /  1026 hPa Calm     96 % 0.00 in /  0 mm
08:24 61.0 °F /  16.1 °C 60.1 °F /  15.6 °C 30.30 in /  1026 hPa Calm     97 % 0.00 in /  0 mm
08:27 61.1 °F /  16.2 °C 60.2 °F /  15.7 °C 30.30 in /  1026 hPa SSW 0.4 mph /  0.6 km/h 2.3 mph /  3.7 km/h 97 % 0.00 in /  0 mm
08:32 61.2 °F /  16.2 °C 60.3 °F /  15.7 °C 30.30 in /  1026 hPa SSE 0.5 mph /  0.8 km/h 1.2 mph /  1.9 km/h 97 % 0.00 in /  0 mm
08:37 61.4 °F /  16.3 °C 60.5 °F /  15.8 °C 30.30 in /  1026 hPa Calm   1.2 mph /  1.9 km/h 97 % 0.00 in /  0 mm
08:42 61.6 °F /  16.4 °C 60.7 °F /  15.9 °C 30.30 in /  1026 hPa South 0.4 mph /  0.6 km/h 2.3 mph /  3.7 km/h 97 % 0.00 in /  0 mm
08:44 61.6 °F /  16.4 °C 60.7 °F /  15.9 °C 30.31 in /  1026.3 hPa SSE 0.5 mph /  0.8 km/h 2.3 mph /  3.7 km/h 97 % 0.00 in /  0 mm
08:49 61.8 °F /  16.6 °C 60.9 °F /  16.1 °C 30.31 in /  1026.3 hPa SSE 1.6 mph /  2.6 km/h 3.5 mph /  5.6 km/h 97 % 0.00 in /  0 mm
08:54 62.1 °F /  16.7 °C 61.2 °F /  16.2 °C 30.30 in /  1026 hPa SSE 0.1 mph /  0.2 km/h 1.2 mph /  1.9 km/h 97 % 0.00 in /  0 mm
08:59 62.3 °F /  16.8 °C 61.4 °F /  16.3 °C 30.30 in /  1026 hPa South 0.6 mph /  1 km/h 2.3 mph /  3.7 km/h 97 % 0.00 in /  0 mm
09:04 62.5 °F /  16.9 °C 61.6 °F /  16.4 °C 30.31 in /  1026.3 hPa South 0.8 mph /  1.3 km/h 4.6 mph /  7.4 km/h 97 % 0.00 in /  0 mm
09:09 62.7 °F /  17.1 °C 61.8 °F /  16.6 °C 30.30 in /  1026 hPa South 0.9 mph /  1.4 km/h 3.5 mph /  5.6 km/h 97 % 0.00 in /  0 mm
09:14 62.8 °F /  17.1 °C 61.9 °F /  16.6 °C 30.31 in /  1026.3 hPa SSW 0.9 mph /  1.4 km/h 5.8 mph /  9.3 km/h 97 % 0.00 in /  0 mm
09:19 63.0 °F /  17.2 °C 62.1 °F /  16.7 °C 30.31 in /  1026.3 hPa SSW 1.2 mph /  1.9 km/h 3.5 mph /  5.6 km/h 97 % 0.00 in /  0 mm
09:24 63.1 °F /  17.3 °C 62.2 °F /  16.8 °C 30.31 in /  1026.3 hPa SSW 1.7 mph /  2.7 km/h 3.5 mph /  5.6 km/h 97 % 0.00 in /  0 mm
09:29 63.3 °F /  17.4 °C 62.4 °F /  16.9 °C 30.31 in /  1026.3 hPa South 1.3 mph /  2.1 km/h 3.5 mph /  5.6 km/h 97 % 0.00 in /  0 mm
09:34 63.4 °F /  17.4 °C 62.5 °F /  16.9 °C 30.31 in /  1026.3 hPa SE 0.7 mph /  1.1 km/h 3.5 mph /  5.6 km/h 97 % 0.00 in /  0 mm
09:39 63.5 °F /  17.5 °C 62.6 °F /  17 °C 30.31 in /  1026.3 hPa West 0.5 mph /  0.8 km/h 2.3 mph /  3.7 km/h 97 % 0.00 in /  0 mm
09:44 63.7 °F /  17.6 °C 62.8 °F /  17.1 °C 30.32 in /  1026.6 hPa SSW 1.4 mph /  2.3 km/h 3.5 mph /  5.6 km/h 97 % 0.00 in /  0 mm
09:49 63.8 °F /  17.7 °C 62.9 °F /  17.2 °C 30.32 in /  1026.6 hPa South 0.2 mph /  0.3 km/h 2.3 mph /  3.7 km/h 97 % 0.00 in /  0 mm
09:54 64.0 °F /  17.8 °C 63.1 °F /  17.3 °C 30.32 in /  1026.6 hPa South 0.7 mph /  1.1 km/h 3.0 mph /  4.8 km/h 97 % 0.00 in /  0 mm
09:59 64.2 °F /  17.9 °C 63.3 °F /  17.4 °C 30.32 in /  1026.6 hPa Calm   3.5 mph /  5.6 km/h 97 % 0.00 in /  0 mm
10:04 64.4 °F /  18 °C 63.5 °F /  17.5 °C 30.32 in /  1026.6 hPa SSE 1.6 mph /  2.6 km/h 3.5 mph /  5.6 km/h 97 % 0.00 in /  0 mm
10:09 64.6 °F /  18.1 °C 63.7 °F /  17.6 °C 30.32 in /  1026.6 hPa SW 0.2 mph /  0.3 km/h 1.2 mph /  1.9 km/h 97 % 0.00 in /  0 mm
10:14 64.8 °F /  18.2 °C 63.9 °F /  17.7 °C 30.32 in /  1026.6 hPa SW 2.1 mph /  3.4 km/h 4.0 mph /  6.4 km/h 97 % 0.00 in /  0 mm
10:19 65.0 °F /  18.3 °C 63.8 °F /  17.7 °C 30.32 in /  1026.6 hPa SW 2.3 mph /  3.7 km/h 3.5 mph /  5.6 km/h 96 % 0.00 in /  0 mm
10:24 65.2 °F /  18.4 °C 64.0 °F /  17.8 °C 30.32 in /  1026.6 hPa SSW 1.1 mph /  1.8 km/h 2.3 mph /  3.7 km/h 96 % 0.00 in /  0 mm
10:29 65.4 °F /  18.6 °C 64.2 °F /  17.9 °C 30.32 in /  1026.6 hPa East 0.1 mph /  0.2 km/h 1.2 mph /  1.9 km/h 96 % 0.00 in /  0 mm
10:34 65.7 °F /  18.7 °C 64.5 °F /  18.1 °C 30.32 in /  1026.6 hPa Calm   2.0 mph /  3.2 km/h 96 % 0.00 in /  0 mm
10:39 65.9 °F /  18.8 °C 64.4 °F /  18 °C 30.32 in /  1026.6 hPa WSW 1.6 mph /  2.6 km/h 3.5 mph /  5.6 km/h 95 % 0.00 in /  0 mm
10:44 66.2 °F /  19 °C 64.4 °F /  18 °C 30.31 in /  1026.3 hPa WSW 0.2 mph /  0.3 km/h   94 % 0.00 in /  0 mm
10:50 66.7 °F /  19.3 °C 64.9 °F /  18.3 °C 30.32 in /  1026.6 hPa WSW 0.8 mph /  1.3 km/h 3.5 mph /  5.6 km/h 94 % 0.00 in /  0 mm
10:55 67.2 °F /  19.6 °C 65.1 °F /  18.4 °C 30.32 in /  1026.6 hPa SSW 3.2 mph /  5.1 km/h 6.9 mph /  11.1 km/h 93 % 0.00 in /  0 mm
11:00 67.7 °F /  19.8 °C 65.0 °F /  18.3 °C 30.31 in /  1026.3 hPa WSW 2.4 mph /  3.9 km/h 5.8 mph /  9.3 km/h 91 % 0.00 in /  0 mm
11:05 68.1 °F /  20.1 °C 64.7 °F /  18.2 °C 30.32 in /  1026.6 hPa SW 2.9 mph /  4.7 km/h 4.6 mph /  7.4 km/h 89 % 0.00 in /  0 mm
11:10 68.5 °F /  20.3 °C 64.8 °F /  18.2 °C 30.31 in /  1026.3 hPa SW 1.5 mph /  2.4 km/h 4.0 mph /  6.4 km/h 88 % 0.00 in /  0 mm
11:15 69.0 °F /  20.6 °C 65.3 °F /  18.5 °C 30.32 in /  1026.6 hPa WNW 2.0 mph /  3.2 km/h 5.0 mph /  8 km/h 88 % 0.00 in /  0 mm
11:20 69.5 °F /  20.8 °C 65.1 °F /  18.4 °C 30.31 in /  1026.3 hPa SSW 2.6 mph /  4.2 km/h 5.8 mph /  9.3 km/h 86 % 0.00 in /  0 mm
11:25 69.8 °F /  21 °C 64.7 °F /  18.2 °C 30.32 in /  1026.6 hPa WSW 4.4 mph /  7.1 km/h 6.9 mph /  11.1 km/h 84 % 0.00 in /  0 mm
11:30 70.1 °F /  21.2 °C 65.0 °F /  18.3 °C 30.32 in /  1026.6 hPa WSW 1.0 mph /  1.6 km/h 6.9 mph /  11.1 km/h 84 % 0.00 in /  0 mm
11:35 70.2 °F /  21.2 °C 64.8 °F /  18.2 °C 30.32 in /  1026.6 hPa WNW 0.2 mph /  0.3 km/h 3.5 mph /  5.6 km/h 83 % 0.00 in /  0 mm
11:40 70.2 °F /  21.2 °C 64.4 °F /  18 °C 30.32 in /  1026.6 hPa West 2.4 mph /  3.9 km/h 4.0 mph /  6.4 km/h 82 % 0.00 in /  0 mm
11:45 70.2 °F /  21.2 °C 64.4 °F /  18 °C 30.32 in /  1026.6 hPa SW 0.9 mph /  1.4 km/h 3.5 mph /  5.6 km/h 82 % 0.00 in /  0 mm
11:50 70.1 °F /  21.2 °C 64.3 °F /  17.9 °C 30.31 in /  1026.3 hPa WNW 3.1 mph /  5 km/h 6.0 mph /  9.7 km/h 82 % 0.01 in /  0.25 mm
11:55 69.9 °F /  21.1 °C 64.2 °F /  17.9 °C 30.32 in /  1026.6 hPa WNW 1.6 mph /  2.6 km/h 3.5 mph /  5.6 km/h 82 % 0.01 in /  0.25 mm
12:00 69.7 °F /  20.9 °C 64.3 °F /  17.9 °C 30.31 in /  1026.3 hPa WNW 1.7 mph /  2.7 km/h 3.0 mph /  4.8 km/h 83 % 0.01 in /  0.25 mm
12:05 69.5 °F /  20.8 °C 64.1 °F /  17.8 °C 30.31 in /  1026.3 hPa WNW 0.6 mph /  1 km/h 2.3 mph /  3.7 km/h 83 % 0.01 in /  0.25 mm
12:10 69.2 °F /  20.7 °C 64.2 °F /  17.9 °C 30.31 in /  1026.3 hPa Calm   2.3 mph /  3.7 km/h 84 % 0.01 in /  0.25 mm
12:15 69.1 °F /  20.6 °C 64.1 °F /  17.8 °C 30.30 in /  1026 hPa Calm   2.3 mph /  3.7 km/h 84 % 0.01 in /  0.25 mm
12:21 68.9 °F /  20.5 °C 64.5 °F /  18.1 °C 30.30 in /  1026 hPa Calm     86 % 0.01 in /  0.25 mm
12:26 68.9 °F /  20.5 °C 64.9 °F /  18.3 °C 30.30 in /  1026 hPa Calm   3.0 mph /  4.8 km/h 87 % 0.00 in /  0 mm
12:31 69.0 °F /  20.6 °C 64.6 °F /  18.1 °C 30.29 in /  1025.6 hPa WSW 3.0 mph /  4.8 km/h 5.0 mph /  8 km/h 86 % 0.00 in /  0 mm
12:36 69.1 °F /  20.6 °C 64.4 °F /  18 °C 30.29 in /  1025.6 hPa South 2.0 mph /  3.2 km/h 7.0 mph /  11.3 km/h 85 % 0.00 in /  0 mm
12:41 69.5 °F /  20.8 °C 64.4 °F /  18 °C 30.27 in /  1024.9 hPa South 1.0 mph /  1.6 km/h 7.0 mph /  11.3 km/h 84 % 0.00 in /  0 mm
12:42 69.6 °F /  20.9 °C 64.5 °F /  18.1 °C 30.28 in /  1025.3 hPa SSW 2.4 mph /  3.9 km/h 3.5 mph /  5.6 km/h 84 % 0.01 in /  0.25 mm
12:47 69.9 °F /  21.1 °C 64.2 °F /  17.9 °C 30.28 in /  1025.3 hPa SE 1.5 mph /  2.4 km/h 9.2 mph /  14.8 km/h 82 % 0.01 in /  0.25 mm
12:52 70.1 °F /  21.2 °C 64.0 °F /  17.8 °C 30.28 in /  1025.3 hPa SSE 2.9 mph /  4.7 km/h 10.4 mph /  16.7 km/h 81 % 0.00 in /  0 mm
12:57 70.3 °F /  21.3 °C 64.2 °F /  17.9 °C 30.28 in /  1025.3 hPa SSE 3.2 mph /  5.1 km/h 10.0 mph /  16.1 km/h 81 % 0.00 in /  0 mm
13:02 70.3 °F /  21.3 °C 63.8 °F /  17.7 °C 30.28 in /  1025.3 hPa SSW 4.2 mph /  6.8 km/h 6.9 mph /  11.1 km/h 80 % 0.00 in /  0 mm
13:08 70.4 °F /  21.3 °C 63.9 °F /  17.7 °C 30.27 in /  1024.9 hPa SSW 5.2 mph /  8.4 km/h 8.1 mph /  13 km/h 80 % 0.00 in /  0 mm
13:13 70.5 °F /  21.4 °C 64.0 °F /  17.8 °C 30.27 in /  1024.9 hPa SSW 1.9 mph /  3.1 km/h 6.9 mph /  11.1 km/h 80 % 0.00 in /  0 mm
13:18 70.6 °F /  21.4 °C 64.1 °F /  17.8 °C 30.27 in /  1024.9 hPa SSW 0.7 mph /  1.1 km/h 3.5 mph /  5.6 km/h 80 % 0.00 in /  0 mm
13:23 70.6 °F /  21.4 °C 63.8 °F /  17.7 °C 30.27 in /  1024.9 hPa SSE 1.9 mph /  3.1 km/h 6.0 mph /  9.7 km/h 79 % 0.00 in /  0 mm
13:28 70.7 °F /  21.5 °C 63.5 °F /  17.5 °C 30.27 in /  1024.9 hPa SE 1.2 mph /  1.9 km/h 3.5 mph /  5.6 km/h 78 % 0.00 in /  0 mm
13:33 70.8 °F /  21.6 °C 64.0 °F /  17.8 °C 30.27 in /  1024.9 hPa SSW 2.8 mph /  4.5 km/h 6.9 mph /  11.1 km/h 79 % 0.00 in /  0 mm
13:38 70.9 °F /  21.6 °C 63.7 °F /  17.6 °C 30.27 in /  1024.9 hPa SSW 1.4 mph /  2.3 km/h 3.5 mph /  5.6 km/h 78 % 0.00 in /  0 mm
13:43 71.1 °F /  21.7 °C 63.5 °F /  17.5 °C 30.25 in /  1024.3 hPa SE 1.5 mph /  2.4 km/h 5.0 mph /  8 km/h 77 % 0.00 in /  0 mm
13:44 71.2 °F /  21.8 °C 63.6 °F /  17.6 °C 30.25 in /  1024.3 hPa SSE 2.5 mph /  4 km/h 4.6 mph /  7.4 km/h 77 % 0.00 in /  0 mm
13:49 71.4 °F /  21.9 °C 63.4 °F /  17.4 °C 30.26 in /  1024.6 hPa SSW 1.9 mph /  3.1 km/h 5.0 mph /  8 km/h 76 % 0.00 in /  0 mm
13:54 71.7 °F /  22.1 °C 63.7 °F /  17.6 °C 30.26 in /  1024.6 hPa SSW 3.4 mph /  5.5 km/h 5.8 mph /  9.3 km/h 76 % 0.00 in /  0 mm
13:59 72.2 °F /  22.3 °C 64.2 °F /  17.9 °C 30.26 in /  1024.6 hPa SSW 2.8 mph /  4.5 km/h 5.0 mph /  8 km/h 76 % 0.00 in /  0 mm
14:04 72.6 °F /  22.6 °C 64.2 °F /  17.9 °C 30.25 in /  1024.3 hPa SSW 4.3 mph /  6.9 km/h 6.9 mph /  11.1 km/h 75 % 0.00 in /  0 mm
14:09 73.0 °F /  22.8 °C 64.2 °F /  17.9 °C 30.26 in /  1024.6 hPa South 1.9 mph /  3.1 km/h 6.9 mph /  11.1 km/h 74 % 0.00 in /  0 mm
14:14 73.3 °F /  22.9 °C 63.7 °F /  17.6 °C 30.26 in /  1024.6 hPa SSW 1.8 mph /  2.9 km/h 6.9 mph /  11.1 km/h 72 % 0.00 in /  0 mm
14:19 73.5 °F /  23.1 °C 63.9 °F /  17.7 °C 30.26 in /  1024.6 hPa SSW 3.8 mph /  6.1 km/h 8.1 mph /  13 km/h 72 % 0.00 in /  0 mm
14:24 73.4 °F /  23 °C 63.8 °F /  17.7 °C 30.26 in /  1024.6 hPa SSW 1.6 mph /  2.6 km/h 3.5 mph /  5.6 km/h 72 % 0.00 in /  0 mm
14:29 73.4 °F /  23 °C 64.2 °F /  17.9 °C 30.26 in /  1024.6 hPa WSW 5.2 mph /  8.4 km/h 7.0 mph /  11.3 km/h 73 % 0.00 in /  0 mm
14:34 73.5 °F /  23.1 °C 64.3 °F /  17.9 °C 30.26 in /  1024.6 hPa SW 4.4 mph /  7.1 km/h 6.0 mph /  9.7 km/h 73 % 0.00 in /  0 mm
14:39 73.6 °F /  23.1 °C 64.0 °F /  17.8 °C 30.25 in /  1024.3 hPa SW 2.6 mph /  4.2 km/h 5.8 mph /  9.3 km/h 72 % 0.00 in /  0 mm
14:44 73.7 °F /  23.2 °C 64.1 °F /  17.8 °C 30.25 in /  1024.3 hPa SSW 2.7 mph /  4.3 km/h 6.0 mph /  9.7 km/h 72 % 0.00 in /  0 mm
14:49 73.7 °F /  23.2 °C 63.7 °F /  17.6 °C 30.25 in /  1024.3 hPa South 3.9 mph /  6.3 km/h 7.0 mph /  11.3 km/h 71 % 0.00 in /  0 mm
14:54 73.6 °F /  23.1 °C 63.6 °F /  17.6 °C 30.24 in /  1023.9 hPa SE 2.1 mph /  3.4 km/h 6.9 mph /  11.1 km/h 71 % 0.00 in /  0 mm
14:59 73.5 °F /  23.1 °C 63.9 °F /  17.7 °C 30.25 in /  1024.3 hPa South 2.0 mph /  3.2 km/h 3.5 mph /  5.6 km/h 72 % 0.00 in /  0 mm
15:04 73.5 °F /  23.1 °C 63.5 °F /  17.5 °C 30.25 in /  1024.3 hPa SSW 3.3 mph /  5.3 km/h 7.0 mph /  11.3 km/h 71 % 0.00 in /  0 mm
15:09 73.3 °F /  22.9 °C 63.3 °F /  17.4 °C 30.25 in /  1024.3 hPa SSW 3.6 mph /  5.8 km/h 5.0 mph /  8 km/h 71 % 0.00 in /  0 mm
15:14 73.2 °F /  22.9 °C 63.6 °F /  17.6 °C 30.25 in /  1024.3 hPa SW 3.7 mph /  6 km/h 7.0 mph /  11.3 km/h 72 % 0.00 in /  0 mm
15:19 73.0 °F /  22.8 °C 63.4 °F /  17.4 °C 30.25 in /  1024.3 hPa SW 2.6 mph /  4.2 km/h 5.8 mph /  9.3 km/h 72 % 0.00 in /  0 mm
15:24 72.8 °F /  22.7 °C 63.2 °F /  17.3 °C 30.25 in /  1024.3 hPa South 0.8 mph /  1.3 km/h 2.3 mph /  3.7 km/h 72 % 0.00 in /  0 mm
15:29 72.7 °F /  22.6 °C 63.1 °F /  17.3 °C 30.25 in /  1024.3 hPa SSW 4.8 mph /  7.7 km/h 8.1 mph /  13 km/h 72 % 0.00 in /  0 mm
15:34 72.5 °F /  22.5 °C 63.4 °F /  17.4 °C 30.25 in /  1024.3 hPa SSE 3.0 mph /  4.8 km/h 4.6 mph /  7.4 km/h 73 % 0.00 in /  0 mm
15:39 72.2 °F /  22.3 °C 62.7 °F /  17.1 °C 30.25 in /  1024.3 hPa South 3.3 mph /  5.3 km/h 6.9 mph /  11.1 km/h 72 % 0.00 in /  0 mm
15:44 72.0 °F /  22.2 °C 62.9 °F /  17.2 °C 30.25 in /  1024.3 hPa South 1.5 mph /  2.4 km/h 3.5 mph /  5.6 km/h 73 % 0.00 in /  0 mm
15:49 71.8 °F /  22.1 °C 63.1 °F /  17.3 °C 30.25 in /  1024.3 hPa SSW 2.1 mph /  3.4 km/h 7.0 mph /  11.3 km/h 74 % 0.00 in /  0 mm
15:54 71.6 °F /  22 °C 62.5 °F /  16.9 °C 30.25 in /  1024.3 hPa South 1.8 mph /  2.9 km/h 3.5 mph /  5.6 km/h 73 % 0.00 in /  0 mm
16:00 71.5 °F /  21.9 °C 62.4 °F /  16.9 °C 30.24 in /  1023.9 hPa SSE 0.8 mph /  1.3 km/h 2.3 mph /  3.7 km/h 73 % 0.00 in /  0 mm
16:05 71.3 °F /  21.8 °C 62.2 °F /  16.8 °C 30.24 in /  1023.9 hPa SE 2.0 mph /  3.2 km/h 6.9 mph /  11.1 km/h 73 % 0.00 in /  0 mm
16:10 71.2 °F /  21.8 °C 62.1 °F /  16.7 °C 30.24 in /  1023.9 hPa SSW 1.7 mph /  2.7 km/h 5.8 mph /  9.3 km/h 73 % 0.00 in /  0 mm
16:15 71.1 °F /  21.7 °C 62.4 °F /  16.9 °C 30.24 in /  1023.9 hPa WSW 0.7 mph /  1.1 km/h 4.6 mph /  7.4 km/h 74 % 0.00 in /  0 mm
16:20 71.0 °F /  21.7 °C 62.3 °F /  16.8 °C 30.24 in /  1023.9 hPa Calm   1.0 mph /  1.6 km/h 74 % 0.00 in /  0 mm
16:25 71.0 °F /  21.7 °C 62.3 °F /  16.8 °C 30.24 in /  1023.9 hPa SE 0.2 mph /  0.3 km/h 2.3 mph /  3.7 km/h 74 % 0.00 in /  0 mm
16:30 70.9 °F /  21.6 °C 62.6 °F /  17 °C 30.24 in /  1023.9 hPa SSE 0.9 mph /  1.4 km/h 3.5 mph /  5.6 km/h 75 % 0.00 in /  0 mm
16:35 70.8 °F /  21.6 °C 62.1 °F /  16.7 °C 30.24 in /  1023.9 hPa SE 1.4 mph /  2.3 km/h 4.0 mph /  6.4 km/h 74 % 0.00 in /  0 mm
16:40 70.6 °F /  21.4 °C 61.9 °F /  16.6 °C 30.24 in /  1023.9 hPa South 3.4 mph /  5.5 km/h 5.0 mph /  8 km/h 74 % 0.00 in /  0 mm
16:45 70.5 °F /  21.4 °C 61.8 °F /  16.6 °C 30.24 in /  1023.9 hPa South 0.8 mph /  1.3 km/h 2.3 mph /  3.7 km/h 74 % 0.00 in /  0 mm
16:50 70.4 °F /  21.3 °C 61.7 °F /  16.5 °C 30.24 in /  1023.9 hPa SSW 0.1 mph /  0.2 km/h 2.3 mph /  3.7 km/h 74 % 0.00 in /  0 mm
16:55 70.4 °F /  21.3 °C 62.1 °F /  16.7 °C 30.24 in /  1023.9 hPa SSE 5.3 mph /  8.5 km/h 9.2 mph /  14.8 km/h 75 % 0.00 in /  0 mm
17:00 70.3 °F /  21.3 °C 62.0 °F /  16.7 °C 30.24 in /  1023.9 hPa SSE 1.4 mph /  2.3 km/h 3.5 mph /  5.6 km/h 75 % 0.00 in /  0 mm
17:05 70.2 °F /  21.2 °C 61.9 °F /  16.6 °C 30.23 in /  1023.6 hPa SSW 0.9 mph /  1.4 km/h 3.5 mph /  5.6 km/h 75 % 0.00 in /  0 mm
17:10 70.1 °F /  21.2 °C 61.8 °F /  16.6 °C 30.23 in /  1023.6 hPa South 0.9 mph /  1.4 km/h 3.5 mph /  5.6 km/h 75 % 0.00 in /  0 mm
17:15 69.9 °F /  21.1 °C 62.0 °F /  16.7 °C 30.24 in /  1023.9 hPa South 0.6 mph /  1 km/h 3.5 mph /  5.6 km/h 76 % 0.00 in /  0 mm
17:20 69.8 °F /  21 °C 61.9 °F /  16.6 °C 30.24 in /  1023.9 hPa SSW 1.0 mph /  1.6 km/h 3.5 mph /  5.6 km/h 76 % 0.00 in /  0 mm
17:26 69.6 °F /  20.9 °C 61.7 °F /  16.5 °C 30.24 in /  1023.9 hPa Calm   2.0 mph /  3.2 km/h 76 % 0.00 in /  0 mm
17:31 69.4 °F /  20.8 °C 61.5 °F /  16.4 °C 30.24 in /  1023.9 hPa Calm   5.0 mph /  8 km/h 76 % 0.00 in /  0 mm
17:36 69.2 °F /  20.7 °C 61.7 °F /  16.5 °C 30.24 in /  1023.9 hPa Calm   6.0 mph /  9.7 km/h 77 % 0.00 in /  0 mm
17:41 68.9 °F /  20.5 °C 61.4 °F /  16.3 °C 30.24 in /  1023.9 hPa Calm   6.0 mph /  9.7 km/h 77 % 0.00 in /  0 mm
17:46 68.6 °F /  20.3 °C 61.5 °F /  16.4 °C 30.24 in /  1023.9 hPa SSE 1.0 mph /  1.6 km/h 5.0 mph /  8 km/h 78 % 0.00 in /  0 mm
17:51 68.5 °F /  20.3 °C 61.3 °F /  16.3 °C 30.24 in /  1023.9 hPa Calm   3.0 mph /  4.8 km/h 78 % 0.00 in /  0 mm
17:56 68.3 °F /  20.2 °C 61.2 °F /  16.2 °C 30.24 in /  1023.9 hPa SSE 1.0 mph /  1.6 km/h 5.0 mph /  8 km/h 78 % 0.00 in /  0 mm
18:01 68.0 °F /  20 °C 61.2 °F /  16.2 °C 30.24 in /  1023.9 hPa SSE 1.4 mph /  2.3 km/h 3.5 mph /  5.6 km/h 79 % 0.00 in /  0 mm
18:06 67.7 °F /  19.8 °C 61.3 °F /  16.3 °C 30.24 in /  1023.9 hPa SE 1.2 mph /  1.9 km/h 4.6 mph /  7.4 km/h 80 % 0.00 in /  0 mm
18:11 67.4 °F /  19.7 °C 61.4 °F /  16.3 °C 30.24 in /  1023.9 hPa SE 0.3 mph /  0.5 km/h 2.3 mph /  3.7 km/h 81 % 0.00 in /  0 mm
18:16 67.1 °F /  19.5 °C 61.1 °F /  16.2 °C 30.24 in /  1023.9 hPa SE 2.0 mph /  3.2 km/h 4.6 mph /  7.4 km/h 81 % 0.00 in /  0 mm
18:21 66.9 °F /  19.4 °C 61.2 °F /  16.2 °C 30.24 in /  1023.9 hPa ESE 1.9 mph /  3.1 km/h 6.9 mph /  11.1 km/h 82 % 0.00 in /  0 mm
18:26 66.6 °F /  19.2 °C 61.3 °F /  16.3 °C 30.24 in /  1023.9 hPa SSE 0.6 mph /  1 km/h 2.3 mph /  3.7 km/h 83 % 0.00 in /  0 mm
18:31 66.4 °F /  19.1 °C 61.1 °F /  16.2 °C 30.24 in /  1023.9 hPa SSE 2.0 mph /  3.2 km/h 4.6 mph /  7.4 km/h 83 % 0.00 in /  0 mm
18:36 66.2 °F /  19 °C 61.2 °F /  16.2 °C 30.24 in /  1023.9 hPa SSE 1.3 mph /  2.1 km/h 3.5 mph /  5.6 km/h 84 % 0.00 in /  0 mm
18:41 66.0 °F /  18.9 °C 61.0 °F /  16.1 °C 30.24 in /  1023.9 hPa SSE 1.1 mph /  1.8 km/h 3.5 mph /  5.6 km/h 84 % 0.00 in /  0 mm
18:46 65.8 °F /  18.8 °C 61.2 °F /  16.2 °C 30.25 in /  1024.3 hPa SSE 1.0 mph /  1.6 km/h 3.5 mph /  5.6 km/h 85 % 0.00 in /  0 mm
18:51 65.7 °F /  18.7 °C 61.1 °F /  16.2 °C 30.23 in /  1023.6 hPa SE 0.1 mph /  0.2 km/h 1.2 mph /  1.9 km/h 85 % 0.00 in /  0 mm
18:56 65.5 °F /  18.6 °C 61.2 °F /  16.2 °C 30.23 in /  1023.6 hPa SSE 0.1 mph /  0.2 km/h 6.9 mph /  11.1 km/h 86 % 0.00 in /  0 mm
19:01 65.3 °F /  18.5 °C 61.0 °F /  16.1 °C 30.24 in /  1023.9 hPa Calm   1.2 mph /  1.9 km/h 86 % 0.00 in /  0 mm
19:06 65.2 °F /  18.4 °C 61.2 °F /  16.2 °C 30.24 in /  1023.9 hPa South 0.3 mph /  0.5 km/h 3.5 mph /  5.6 km/h 87 % 0.00 in /  0 mm
19:11 65.0 °F /  18.3 °C 61.0 °F /  16.1 °C 30.24 in /  1023.9 hPa SSW 0.2 mph /  0.3 km/h 4.6 mph /  7.4 km/h 87 % 0.00 in /  0 mm
19:16 64.9 °F /  18.3 °C 60.9 °F /  16.1 °C 30.24 in /  1023.9 hPa SE 1.6 mph /  2.6 km/h 3.0 mph /  4.8 km/h 87 % 0.00 in /  0 mm
19:21 64.8 °F /  18.2 °C 61.2 °F /  16.2 °C 30.24 in /  1023.9 hPa South 0.2 mph /  0.3 km/h 1.2 mph /  1.9 km/h 88 % 0.00 in /  0 mm
19:26 64.7 °F /  18.2 °C 61.1 °F /  16.2 °C 30.24 in /  1023.9 hPa SSW 0.6 mph /  1 km/h 3.5 mph /  5.6 km/h 88 % 0.00 in /  0 mm
19:31 64.6 °F /  18.1 °C 61.0 °F /  16.1 °C 30.23 in /  1023.6 hPa SSW 0.4 mph /  0.6 km/h 3.0 mph /  4.8 km/h 88 % 0.00 in /  0 mm
19:37 64.5 °F /  18.1 °C 60.9 °F /  16.1 °C 30.24 in /  1023.9 hPa SSW 0.3 mph /  0.5 km/h 3.5 mph /  5.6 km/h 88 % 0.00 in /  0 mm
19:42 64.4 °F /  18 °C 61.1 °F /  16.2 °C 30.24 in /  1023.9 hPa South 0.4 mph /  0.6 km/h 1.2 mph /  1.9 km/h 89 % 0.00 in /  0 mm
19:47 64.3 °F /  17.9 °C 61.0 °F /  16.1 °C 30.24 in /  1023.9 hPa SW 0.7 mph /  1.1 km/h 2.3 mph /  3.7 km/h 89 % 0.00 in /  0 mm
19:52 64.2 °F /  17.9 °C 60.9 °F /  16.1 °C 30.23 in /  1023.6 hPa SW 0.3 mph /  0.5 km/h 2.3 mph /  3.7 km/h 89 % 0.00 in /  0 mm
19:57 64.1 °F /  17.8 °C 61.1 °F /  16.2 °C 30.24 in /  1023.9 hPa SSW 0.8 mph /  1.3 km/h 3.5 mph /  5.6 km/h 90 % 0.00 in /  0 mm
20:02 64.0 °F /  17.8 °C 61.0 °F /  16.1 °C 30.24 in /  1023.9 hPa SSW 0.4 mph /  0.6 km/h 2.0 mph /  3.2 km/h 90 % 0.00 in /  0 mm
20:07 63.9 °F /  17.7 °C 60.9 °F /  16.1 °C 30.23 in /  1023.6 hPa SSW 0.1 mph /  0.2 km/h 1.2 mph /  1.9 km/h 90 % 0.00 in /  0 mm
20:12 63.9 °F /  17.7 °C 60.9 °F /  16.1 °C 30.22 in /  1023.2 hPa SSW 0.4 mph /  0.6 km/h 2.3 mph /  3.7 km/h 90 % 0.00 in /  0 mm
20:17 63.8 °F /  17.7 °C 60.8 °F /  16 °C 30.23 in /  1023.6 hPa SSW 0.5 mph /  0.8 km/h 2.3 mph /  3.7 km/h 90 % 0.00 in /  0 mm
20:22 63.7 °F /  17.6 °C 61.0 °F /  16.1 °C 30.23 in /  1023.6 hPa South 0.8 mph /  1.3 km/h 3.5 mph /  5.6 km/h 91 % 0.00 in /  0 mm
20:27 63.6 °F /  17.6 °C 60.9 °F /  16.1 °C 30.23 in /  1023.6 hPa South 0.6 mph /  1 km/h 3.5 mph /  5.6 km/h 91 % 0.00 in /  0 mm
20:32 63.5 °F /  17.5 °C 60.8 °F /  16 °C 30.23 in /  1023.6 hPa South 0.7 mph /  1.1 km/h 3.5 mph /  5.6 km/h 91 % 0.00 in /  0 mm
20:37 63.5 °F /  17.5 °C 60.8 °F /  16 °C 30.22 in /  1023.2 hPa SSE 0.4 mph /  0.6 km/h 2.0 mph /  3.2 km/h 91 % 0.00 in /  0 mm
20:42 63.4 °F /  17.4 °C 61.0 °F /  16.1 °C 30.21 in /  1022.9 hPa SSE 0.3 mph /  0.5 km/h 2.3 mph /  3.7 km/h 92 % 0.00 in /  0 mm
20:47 63.4 °F /  17.4 °C 61.0 °F /  16.1 °C 30.21 in /  1022.9 hPa South 0.9 mph /  1.4 km/h 2.3 mph /  3.7 km/h 92 % 0.00 in /  0 mm
20:52 63.3 °F /  17.4 °C 60.9 °F /  16.1 °C 30.21 in /  1022.9 hPa South 0.9 mph /  1.4 km/h 3.5 mph /  5.6 km/h 92 % 0.00 in /  0 mm
20:57 63.3 °F /  17.4 °C 60.9 °F /  16.1 °C 30.22 in /  1023.2 hPa SSW 0.2 mph /  0.3 km/h 2.3 mph /  3.7 km/h 92 % 0.00 in /  0 mm
21:02 63.2 °F /  17.3 °C 61.1 °F /  16.2 °C 30.23 in /  1023.6 hPa SSW 0.5 mph /  0.8 km/h 3.5 mph /  5.6 km/h 93 % 0.00 in /  0 mm
21:07 63.2 °F /  17.3 °C 61.1 °F /  16.2 °C 30.23 in /  1023.6 hPa South 0.4 mph /  0.6 km/h 3.0 mph /  4.8 km/h 93 % 0.00 in /  0 mm
21:13 63.1 °F /  17.3 °C 61.0 °F /  16.1 °C 30.23 in /  1023.6 hPa SE 0.1 mph /  0.2 km/h 2.3 mph /  3.7 km/h 93 % 0.00 in /  0 mm
21:18 63.1 °F /  17.3 °C 61.0 °F /  16.1 °C 30.23 in /  1023.6 hPa South 0.8 mph /  1.3 km/h 3.5 mph /  5.6 km/h 93 % 0.00 in /  0 mm
21:23 63.0 °F /  17.2 °C 60.9 °F /  16.1 °C 30.23 in /  1023.6 hPa SSW 1.6 mph /  2.6 km/h 3.5 mph /  5.6 km/h 93 % 0.00 in /  0 mm
21:28 63.0 °F /  17.2 °C 60.9 °F /  16.1 °C 30.23 in /  1023.6 hPa SSW 0.9 mph /  1.4 km/h 2.3 mph /  3.7 km/h 93 % 0.00 in /  0 mm
21:33 62.9 °F /  17.2 °C 60.8 °F /  16 °C 30.22 in /  1023.2 hPa SSW 0.5 mph /  0.8 km/h 2.3 mph /  3.7 km/h 93 % 0.01 in /  0.25 mm
21:38 62.9 °F /  17.2 °C 60.8 °F /  16 °C 30.23 in /  1023.6 hPa SSW 0.1 mph /  0.2 km/h 1.2 mph /  1.9 km/h 93 % 0.01 in /  0.25 mm
21:43 62.8 °F /  17.1 °C 60.7 °F /  15.9 °C 30.23 in /  1023.6 hPa SSW 0.2 mph /  0.3 km/h 1.2 mph /  1.9 km/h 93 % 0.01 in /  0.25 mm
21:48 62.7 °F /  17.1 °C 60.6 °F /  15.9 °C 30.24 in /  1023.9 hPa Calm     93 % 0.01 in /  0.25 mm
21:53 62.7 °F /  17.1 °C 60.6 °F /  15.9 °C 30.24 in /  1023.9 hPa Calm   1.2 mph /  1.9 km/h 93 % 0.01 in /  0.25 mm
21:58 62.6 °F /  17 °C 60.5 °F /  15.8 °C 30.24 in /  1023.9 hPa SSW 0.1 mph /  0.2 km/h 2.3 mph /  3.7 km/h 93 % 0.01 in /  0.25 mm
22:03 62.6 °F /  17 °C 60.5 °F /  15.8 °C 30.22 in /  1023.2 hPa Calm     93 % 0.01 in /  0.25 mm
22:08 62.6 °F /  17 °C 60.8 °F /  16 °C 30.22 in /  1023.2 hPa SSW 0.1 mph /  0.2 km/h 1.2 mph /  1.9 km/h 94 % 0.01 in /  0.25 mm
22:13 62.6 °F /  17 °C 60.8 °F /  16 °C 30.23 in /  1023.6 hPa SSW 0.1 mph /  0.2 km/h 1.0 mph /  1.6 km/h 94 % 0.01 in /  0.25 mm
22:18 62.5 °F /  16.9 °C 60.7 °F /  15.9 °C 30.23 in /  1023.6 hPa SSW 0.1 mph /  0.2 km/h 1.2 mph /  1.9 km/h 94 % 0.01 in /  0.25 mm
22:23 62.5 °F /  16.9 °C 60.7 °F /  15.9 °C 30.23 in /  1023.6 hPa SSW 0.2 mph /  0.3 km/h 1.2 mph /  1.9 km/h 94 % 0.02 in /  0.51 mm
22:28 62.5 °F /  16.9 °C 60.7 °F /  15.9 °C 30.22 in /  1023.2 hPa SSW 0.3 mph /  0.5 km/h 1.2 mph /  1.9 km/h 94 % 0.02 in /  0.51 mm
22:33 62.5 °F /  16.9 °C 60.7 °F /  15.9 °C 30.21 in /  1022.9 hPa Calm   1.0 mph /  1.6 km/h 94 % 0.01 in /  0.25 mm
22:38 62.5 °F /  16.9 °C 60.7 °F /  15.9 °C 30.22 in /  1023.2 hPa SSW 0.2 mph /  0.3 km/h 1.2 mph /  1.9 km/h 94 % 0.01 in /  0.25 mm
22:43 62.5 °F /  16.9 °C 61.0 °F /  16.1 °C 30.21 in /  1022.9 hPa Calm   1.2 mph /  1.9 km/h 95 % 0.01 in /  0.25 mm
22:48 62.5 °F /  16.9 °C 61.0 °F /  16.1 °C 30.21 in /  1022.9 hPa Calm   1.0 mph /  1.6 km/h 95 % 0.01 in /  0.25 mm
22:53 62.5 °F /  16.9 °C 61.0 °F /  16.1 °C 30.21 in /  1022.9 hPa Calm     95 % 0.01 in /  0.25 mm
22:58 62.5 °F /  16.9 °C 61.0 °F /  16.1 °C 30.21 in /  1022.9 hPa SSW 0.2 mph /  0.3 km/h 2.3 mph /  3.7 km/h 95 % 0.01 in /  0.25 mm
23:03 62.5 °F /  16.9 °C 61.0 °F /  16.1 °C 30.21 in /  1022.9 hPa Calm     95 % 0.01 in /  0.25 mm
23:08 62.5 °F /  16.9 °C 61.0 °F /  16.1 °C 30.21 in /  1022.9 hPa SSW 0.1 mph /  0.2 km/h 1.2 mph /  1.9 km/h 95 % 0.02 in /  0.51 mm
23:14 62.5 °F /  16.9 °C 61.0 °F /  16.1 °C 30.22 in /  1023.2 hPa Calm     95 % 0.02 in /  0.51 mm
23:19 62.4 °F /  16.9 °C 60.9 °F /  16.1 °C 30.22 in /  1023.2 hPa Calm     95 % 0.02 in /  0.51 mm
23:25 62.4 °F /  16.9 °C 60.9 °F /  16.1 °C 29.96 in /  1014.4 hPa Calm     95 % 0.01 in /  0.25 mm
23:33 62.3 °F /  16.8 °C 60.8 °F /  16 °C 30.20 in /  1022.6 hPa Calm     95 % 0.01 in /  0.25 mm
23:36 62.3 °F /  16.8 °C 60.8 °F /  16 °C 30.20 in /  1022.6 hPa Calm     95 % 0.01 in /  0.25 mm
23:41 62.2 °F /  16.8 °C 60.8 °F /  16 °C 30.20 in /  1022.6 hPa Calm   1.2 mph /  1.9 km/h 95 % 0.01 in /  0.25 mm
23:46 62.2 °F /  16.8 °C 60.8 °F /  16 °C 30.20 in /  1022.6 hPa WSW 0.6 mph /  1 km/h 2.3 mph /  3.7 km/h 95 % 0.02 in /  0.51 mm
23:51 62.2 °F /  16.8 °C 60.8 °F /  16 °C 30.21 in /  1022.9 hPa WSW 0.2 mph /  0.3 km/h 1.2 mph /  1.9 km/h 95 % 0.02 in /  0.51 mm
23:56 62.2 °F /  16.8 °C 60.8 °F /  16 °C 30.20 in /  1022.6 hPa WSW 0.4 mph /  0.6 km/h 2.3 mph /  3.7 km/h 95 % 0.02 in /  0.51 mm
Crab Meadow Weather
Compliments of Weather Underground - 3 mb

Script developed by  Jim McMurry - jmcmurry@mwt.net Adapted for the template by  Wim van der Kuil - Leuven-Template.eu

Weather Terms: Tornado Warning - Strong rotation in a thunderstorm is indicated by Doppler radar or a tornado is sighted by skywarn spotters. These warnings are issued on a county by county basis by the local Weather Forecast office in Upton.